Arlington, NY

11:18 PM EST on December 17, 2014 (GMT -0500)
Arlington | Change Station
CLOSE
Current Station
Personal Weather Station
Location: Poughkeepsie, NY
Elevation: 220 ft
Nearby Weather Stations

Elev 220 ft 41.71 °N, 73.90 °W | Updated 2 minutes ago

Overcast
Overcast
40.8 °F
Feels Like 41 °F
N
0.7
Wind Variable Wind from WSW
Gusts 3.1 mph

Today
High -- | Low -- °F
--% Chance of Precip.
Yesterday
High -- | Low -- °F
Precip. -- in
7:16 AM 4:26 PM
Waning Crescent, 17% visible
Pressure 29.86 in
Visibility 10.0 miles
Clouds Overcast 4400 ft
Windchill 41 °F
Dew Point 32 °F
Humidity 70%
Rainfall 0.04 in
Snow Depth Not available.
UV 0.0 out of 12
Pollen .10 out of 12
Air Quality Not available.
Flu Activity Not available.
METAR KPOU 180353Z AUTO 27010KT 10SM OVC044 06/M02 A2986 RMK AO2 SLP109 T00561022 TSNO

More Conditions Fewer Conditions

Pressure 29.86 in
Visibility 10.0 miles
Clouds Overcast 4400 ft
Windchill 41 °F
Dew Point 32 °F
Humidity 70%
Rainfall 0.04 in
Snow Depth Not available.
UV 0.0 out of 12
Pollen .10 out of 12
Air Quality Not available.
Flu Activity Not available.
METAR KPOU 180353Z AUTO 27010KT 10SM OVC044 06/M02 A2986 RMK AO2 SLP109 T00561022 TSNO

More Conditions Fewer Conditions

10-Day Weather Forecast

Almanac

Astronomy

Dec. 17, 2014 Rise Set
Actual Time
Civil Twilight
Nautical Twilight
Astronomical Twilight
Moon
Length of Visible Light
Length of Day
Tomorrow will be .
, % of the Moon is Illuminated

Today's Extremes

State Highs State Lows

Community

WunderPhotos

Upload Photos

1,778,880 photos uploaded!

WunderBlogs® & News

Nearby

Air Quality

  Air Quality AQ Index Pollutant
Not available.

Snow Depth

Station Depth Elevation

Earthquake Activity

City Distance Mag. Time & Date
Minimum magnitude displayed is 2.5.

Coastal Water Temperatures

Place Temperature

Nearby Weather Stations